Aeroporto :
LOGIN :

Iscrizione | Disclaimer

   EN    FR    IT 

 










Sommario :    VFR   VFR Marginale   IFR   IFR Intensivo   IFR Molto Intensivo
Visibilità : 
Base nubi : 
>= 8 km
>= 3000ft
5 / 8 km
1000 / 3000 ft
1500m / 5 km
500 / 1000 ft
800 / 1500m
200 / 500 ft
< 800m
< 200 ft
Simboli :   Temporali  Nebbia  Neve Forte  Precipitazioni Forti  Vento > 20 kt
SIGMETs :   Varie  Temporali  Ghiacco  Turbolenza  Onda orograficha  Ceneri Vulcaniche






- Altitudine del aeroporto : 1234 ft
- Codice IATA : LUX


ELLX - Luxembourg Findel

ULTIMO METAR :
  • 231450Z 09005KT 050V130 9999 BKN014 03/00 Q1034 NOSIG

METARs OBSOLETI :
  • 231420Z 10004KT 070V130 9999 BKN015 03/00 Q1033 TEMPO BKN013
  • 231350Z 10005KT 060V130 9999 BKN016 03/00 Q1033 NOSIG
  • 231320Z 09006KT 040V120 9999 BKN016 03/M00 Q1034 NOSIG
  • 231250Z 09005KT 9999 BKN016 03/M00 Q1034 NOSIG
  • 231220Z 10005KT 060V140 9999 BKN017 03/M00 Q1034 NOSIG

TAF TAF ELLX
Valido dal 23 a 12 ore il 24 a 18 ore UTC


231100Z 2312/2418 07005KT 9999 BKN017
TEMPO 2322/2409 3000 BR BKN005
PROB30
TEMPO 2400/2407 0500 FG BKN001
ATIS : +352 4798 27300
Met : +352 4798 27010 / 27050



MetMap, La meteo Aeronautica in un colpo d'occhio ! - Copyright ORBIFLY Dicembre 2007 - Disclaimer

ORBIFLY MET'MAP TEAM :

Programmazione e sviluppo : Alexandra Zaïnal
Concezione : Baudouin d'Aumeries
Aiuto per la programmazione : Marc-Olivier Méhu
Supporto tecnico e logistico : Manuel Goepfert
Aiuto per la traduzione : Arnaldo La Scala

Contatto : metmap@orbifly.com




FONTI E CREDITI :

   NOAA